Time;durP1;ratioP1;P1;durP2;ratioP2;P2;SDS_P1;SDS_P2;PMS_P1;PMS_P2;Temp;Humidity;BMP_temperature;BMP_pressure;BME280_temperature;BME280_humidity;BME280_pressure;Samples;Min_cycle;Max_cycle;Signal;HPM_P1;HPM_P2
2022/11/08 05:03:02;;;;;;;8.45;4.05;;;;;;;11.20;99.06;101879.38;5063754;28;20415;-82
2022/11/08 05:05:27;;;;;;;9.85;5.20;;;;;;;11.35;99.52;101872.00;5066391;28;20514;-83
2022/11/08 05:07:53;;;;;;;10.20;6.28;;;;;;;11.58;98.13;101873.84;5049343;28;20048;-82
2022/11/08 05:10:19;;;;;;;10.27;5.07;;;;;;;11.71;97.24;101880.34;5050426;28;20558;-84
2022/11/08 05:12:44;;;;;;;11.30;6.30;;;;;;;11.83;96.46;101884.28;5031359;28;20020;-86
2022/11/08 05:15:10;;;;;;;10.65;6.10;;;;;;;11.96;93.69;101877.75;5046780;28;20433;-87
2022/11/08 05:17:36;;;;;;;20.08;7.10;;;;;;;12.19;92.60;101887.31;5049569;28;20029;-80
2022/11/08 05:25:30;;;;;;;9.80;5.13;;;;;;;12.21;91.69;101877.75;5067544;28;20532;-81
2022/11/08 05:27:55;;;;;;;10.80;6.63;;;;;;;12.19;91.13;101872.63;5066219;28;20028;-83
2022/11/08 05:30:21;;;;;;;9.52;6.00;;;;;;;12.46;88.29;101886.34;5065726;28;20029;-84
2022/11/08 05:32:50;;;;;;;11.45;6.43;;;;;;;12.45;87.15;101884.66;5032526;28;20025;-86
2022/11/08 05:35:17;;;;;;;10.50;6.30;;;;;;;12.43;87.93;101901.19;5065899;28;20036;-84
2022/11/08 05:37:43;;;;;;;9.88;6.10;;;;;;;12.55;86.80;101906.75;5065516;28;20432;-85
2022/11/08 05:40:10;;;;;;;11.88;5.40;;;;;;;12.59;85.53;101904.91;5049099;28;20032;-83
2022/11/08 05:42:36;;;;;;;13.48;5.97;;;;;;;12.59;86.32;101905.78;5063917;28;20207;-85
2022/11/08 05:45:01;;;;;;;11.18;5.38;;;;;;;12.62;85.60;101912.59;5064001;28;20103;-86
2022/11/08 05:47:27;;;;;;;12.52;6.03;;;;;;;12.59;85.89;101903.16;5047392;28;20413;-91
2022/11/08 05:49:52;;;;;;;11.75;5.97;;;;;;;12.62;85.26;101904.81;5064904;28;20410;-81
2022/11/08 05:52:17;;;;;;;9.93;6.43;;;;;;;12.75;84.64;101913.81;5052184;28;20036;-86
2022/11/08 05:54:43;;;;;;;9.32;5.18;;;;;;;12.84;83.58;101913.47;5053959;28;20029;-85
2022/11/08 05:57:08;;;;;;;13.40;6.18;;;;;;;12.69;83.64;101887.25;5062196;28;20024;-88
2022/11/08 05:59:34;;;;;;;10.52;6.05;;;;;;;12.85;83.93;101915.16;5066366;28;20117;-87
2022/11/08 06:01:59;;;;;;;9.73;6.45;;;;;;;12.79;85.49;101911.97;5064163;28;20139;-87
2022/11/08 06:04:25;;;;;;;16.23;8.43;;;;;;;12.80;84.67;101911.06;5049198;28;20024;-92
2022/11/08 06:06:51;;;;;;;11.85;6.75;;;;;;;12.79;84.57;101915.41;5051964;28;20048;-90
2022/11/08 06:09:16;;;;;;;8.70;4.78;;;;;;;12.93;82.90;101922.66;5064717;28;20496;-90
2022/11/08 06:11:42;;;;;;;12.55;5.43;;;;;;;12.86;82.73;101914.25;5077829;28;20478;-88
2022/11/08 06:14:07;;;;;;;11.13;6.10;;;;;;;12.84;83.52;101913.47;5022026;28;20041;-93
2022/11/08 06:16:36;;;;;;;14.93;6.00;;;;;;;12.88;83.37;101914.19;5039711;28;20029;-95
2022/11/08 06:19:01;;;;;;;16.52;6.22;;;;;;;12.90;83.30;101915.84;5038286;28;20059;-95
2022/11/08 06:21:27;;;;;;;13.80;6.50;;;;;;;12.86;82.87;101916.00;5044974;28;20028;-87
2022/11/08 06:23:53;;;;;;;14.50;5.80;;;;;;;13.00;82.69;101920.69;5063382;28;20044;-89
2022/11/08 06:26:19;;;;;;;13.35;6.85;;;;;;;12.84;83.78;101910.88;5035774;28;20032;-86
2022/11/08 06:28:44;;;;;;;12.93;7.57;;;;;;;12.86;83.87;101921.19;5055143;28;20135;-86
2022/11/08 06:31:10;;;;;;;15.15;9.63;;;;;;;12.90;83.65;101923.63;5054184;28;20032;-87
2022/11/08 06:33:35;;;;;;;16.95;7.60;;;;;;;12.86;81.02;101936.78;5036009;28;20507;-92
2022/11/08 06:36:01;;;;;;;10.93;6.20;;;;;;;12.98;81.34;101936.34;5053590;28;20051;-87
2022/11/08 06:38:26;;;;;;;12.75;6.05;;;;;;;12.94;80.60;101939.94;5034058;28;20486;-93
2022/11/08 06:40:52;;;;;;;8.95;5.65;;;;;;;12.93;80.85;101928.72;5027404;28;20029;-93
2022/11/08 06:43:18;;;;;;;12.68;5.55;;;;;;;13.05;81.55;101944.72;5018853;28;20037;-92
2022/11/08 06:45:43;;;;;;;8.45;5.00;;;;;;;13.18;80.05;101940.78;5034805;28;20025;-88
2022/11/08 06:48:09;;;;;;;10.13;6.40;;;;;;;13.25;79.73;101950.03;5054949;28;20414;-89
2022/11/08 06:50:34;;;;;;;9.63;4.78;;;;;;;13.29;79.33;101948.19;5032862;28;20407;-89
2022/11/08 06:53:05;;;;;;;12.93;6.93;;;;;;;13.33;78.75;101949.72;5037736;28;20029;-91
2022/11/08 06:55:30;;;;;;;9.88;4.88;;;;;;;13.39;78.88;101942.56;5033893;28;20044;-85
2022/11/08 06:57:56;;;;;;;9.90;6.18;;;;;;;13.29;78.64;101936.03;5047906;28;20024;-88
2022/11/08 07:00:22;;;;;;;16.27;6.85;;;;;;;13.51;77.96;101943.81;5052865;28;20104;-90
2022/11/08 07:02:54;;;;;;;13.60;6.30;;;;;;;13.65;80.93;101949.28;5045138;28;20049;-88
2022/11/08 07:05:20;;;;;;;12.70;6.32;;;;;;;13.85;76.81;101951.06;5024409;28;20096;-85
2022/11/08 07:07:50;;;;;;;14.60;7.00;;;;;;;13.78;78.64;101939.25;5061824;28;20413;-84
2022/11/08 07:10:22;;;;;;;17.63;7.05;;;;;;;13.89;77.06;101946.59;5040912;28;20040;-82
2022/11/08 07:12:49;;;;;;;13.68;6.97;;;;;;;13.85;77.12;101945.88;5039921;28;20036;-91
2022/11/08 07:15:15;;;;;;;12.35;7.88;;;;;;;13.83;78.11;101952.03;5016346;28;20052;-86
2022/11/08 07:17:41;;;;;;;9.45;5.05;;;;;;;13.75;78.37;101952.34;5028417;28;20513;-93
2022/11/08 07:20:07;;;;;;;13.20;5.93;;;;;;;13.62;78.34;101933.81;5025138;28;20470;-86
2022/11/08 07:22:33;;;;;;;14.88;6.93;;;;;;;13.71;79.14;101946.44;5051261;28;20445;-86
2022/11/08 07:24:58;;;;;;;16.58;7.45;;;;;;;13.64;79.41;101941.56;5062302;28;20062;-92
2022/11/08 07:27:24;;;;;;;13.13;6.72;;;;;;;14.01;80.58;101944.31;5024794;28;20078;-88
2022/11/08 07:29:49;;;;;;;15.10;6.15;;;;;;;14.06;77.27;101939.78;5037300;28;20056;-88
2022/11/08 07:32:14;;;;;;;15.80;7.95;;;;;;;13.97;77.84;101939.31;5058489;28;20414;-88
2022/11/08 07:34:40;;;;;;;15.63;5.97;;;;;;;13.90;77.27;101940.50;5052630;28;20033;-85
2022/11/08 07:37:06;;;;;;;10.57;5.72;;;;;;;13.83;76.65;101937.28;5057233;28;20032;-88
2022/11/08 07:39:31;;;;;;;14.38;5.00;;;;;;;13.71;77.07;101917.00;5044212;28;20600;-89
2022/11/08 07:41:57;;;;;;;14.13;6.68;;;;;;;13.93;76.75;101946.41;5054383;28;20029;-86
2022/11/08 07:44:22;;;;;;;12.70;6.85;;;;;;;13.92;76.92;101941.25;5046874;28;20107;-93
2022/11/08 07:46:48;;;;;;;15.18;5.50;;;;;;;14.02;77.38;101950.38;5041595;28;20052;-88
2022/11/08 07:49:13;;;;;;;15.55;7.22;;;;;;;13.84;77.20;101919.91;5051892;28;20111;-85
2022/11/08 07:51:39;;;;;;;12.85;6.70;;;;;;;14.05;76.27;101938.06;5036783;28;20474;-89
2022/11/08 07:54:04;;;;;;;16.10;7.15;;;;;;;14.06;77.06;101942.38;5053188;28;20067;-92
2022/11/08 07:56:30;;;;;;;18.35;8.07;;;;;;;14.01;77.15;101926.09;5021294;28;20033;-85
2022/11/08 07:58:55;;;;;;;13.55;6.88;;;;;;;14.02;76.64;101914.78;5031923;28;20114;-89
2022/11/08 08:01:21;;;;;;;12.95;5.80;;;;;;;14.27;76.13;101927.59;5006550;28;20081;-88
2022/11/08 08:03:46;;;;;;;14.07;7.65;;;;;;;14.39;76.25;101936.63;5046764;28;20108;-88
2022/11/08 08:06:12;;;;;;;27.05;7.15;;;;;;;14.39;74.85;101921.00;5049950;28;20410;-85
2022/11/08 08:08:37;;;;;;;31.85;14.13;;;;;;;14.32;73.78;101896.16;5034741;28;20111;-82
2022/11/08 08:11:04;;;;;;;23.13;10.40;;;;;;;14.60;73.30;101933.09;5053108;28;20033;-93
2022/11/08 08:13:29;;;;;;;12.95;5.60;;;;;;;14.63;72.30;101925.13;5049334;28;20024;-83
2022/11/08 08:15:59;;;;;;;14.82;7.70;;;;;;;14.67;72.25;101917.19;5048099;28;20399;-83
2022/11/08 08:18:25;;;;;;;13.77;5.97;;;;;;;14.78;71.26;101923.59;5038914;28;20410;-86
2022/11/08 08:20:50;;;;;;;15.80;6.70;;;;;;;14.89;71.36;101923.09;5045279;28;20037;-87
2022/11/08 08:23:15;;;;;;;10.48;5.78;;;;;;;14.93;71.50;101924.63;5039563;28;20024;-89
2022/11/08 08:25:41;;;;;;;17.33;5.80;;;;;;;14.98;71.46;101920.06;5047158;28;20102;-90
2022/11/08 08:28:08;;;;;;;13.57;7.80;;;;;;;15.17;69.95;101925.28;5016119;28;20130;-91
2022/11/08 08:30:33;;;;;;;14.63;6.47;;;;;;;15.03;68.50;101899.84;5031514;28;20238;-89
2022/11/08 08:33:03;;;;;;;18.95;7.80;;;;;;;15.21;68.97;101932.84;5033063;28;20453;-88
2022/11/08 08:35:29;;;;;;;13.88;6.28;;;;;;;15.23;67.97;101924.97;5048035;28;20029;-94
2022/11/08 08:38:01;;;;;;;15.32;7.32;;;;;;;15.21;68.82;101912.00;5031894;28;20472;-83
2022/11/08 08:40:26;;;;;;;11.38;6.18;;;;;;;15.37;69.14;101932.13;5027537;28;20135;-86
2022/11/08 08:42:52;;;;;;;13.48;6.10;;;;;;;15.43;68.46;101931.81;5063676;28;20108;-94
2022/11/08 08:45:17;;;;;;;20.95;8.00;;;;;;;15.40;68.18;101921.53;5033095;28;20029;-93
2022/11/08 08:47:43;;;;;;;15.23;7.00;;;;;;;15.46;68.38;101909.06;5033358;28;20391;-86
2022/11/08 08:50:08;;;;;;;12.82;6.20;;;;;;;15.57;67.79;101913.75;5064032;28;20397;-89
2022/11/08 08:52:34;;;;;;;21.52;10.43;;;;;;;15.64;68.47;101896.91;5064064;28;20410;-84
2022/11/08 08:54:59;;;;;;;30.08;16.20;;;;;;;15.89;66.86;101913.94;5021844;28;20493;-86
2022/11/08 08:57:25;;;;;;;19.67;8.85;;;;;;;15.83;66.89;101903.78;5043005;28;20029;-87
2022/11/08 08:59:50;;;;;;;11.88;5.53;;;;;;;15.87;65.29;101911.41;5061120;28;20064;-94
2022/11/08 09:02:16;;;;;;;14.35;6.63;;;;;;;16.01;65.32;101915.91;5036000;28;20082;-86
2022/11/08 09:04:42;;;;;;;13.85;5.88;;;;;;;15.68;64.09;101868.91;5057012;28;20395;-82
2022/11/08 09:07:07;;;;;;;13.13;5.38;;;;;;;15.96;64.20;101891.81;5047172;28;20483;-91
2022/11/08 09:09:33;;;;;;;13.40;5.70;;;;;;;16.19;64.54;101921.97;5059101;28;20067;-87
2022/11/08 09:11:59;;;;;;;13.00;6.18;;;;;;;16.26;63.56;101918.13;5042481;28;20486;-91
2022/11/08 09:14:25;;;;;;;13.75;7.20;;;;;;;16.34;65.00;101913.34;5021825;28;20029;-92
2022/11/08 09:16:50;;;;;;;17.15;8.98;;;;;;;16.38;64.06;101900.94;5033870;28;20514;-87
2022/11/08 09:19:15;;;;;;;7.82;3.50;;;;;;;16.43;63.98;101904.19;5031826;28;20025;-84
2022/11/08 09:21:41;;;;;;;11.07;5.22;;;;;;;16.52;64.62;101909.75;5031164;28;20112;-83
2022/11/08 09:24:06;;;;;;;12.93;6.45;;;;;;;16.67;63.36;101913.28;5040882;28;20036;-88
2022/11/08 09:26:32;;;;;;;10.10;5.10;;;;;;;16.66;64.38;101916.00;5033327;28;20060;-91
2022/11/08 09:28:59;;;;;;;13.10;6.20;;;;;;;16.69;64.12;101911.47;5037783;28;20036;-89
2022/11/08 09:31:24;;;;;;;13.77;5.47;;;;;;;16.79;63.08;101911.81;5050255;28;21559;-91
2022/11/08 09:33:50;;;;;;;14.93;5.70;;;;;;;16.69;64.09;101901.03;5036316;28;20554;-90
2022/11/08 09:36:15;;;;;;;14.45;6.07;;;;;;;16.76;63.17;101901.53;5023798;28;20495;-86
2022/11/08 09:38:41;;;;;;;11.07;5.70;;;;;;;17.06;64.53;101893.78;5064199;28;20029;-87
2022/11/08 09:41:43;;;;;;;15.43;6.28;;;;;;;17.42;62.99;101904.78;5032553;28;20062;-85
2022/11/08 09:44:09;;;;;;;7.97;4.65;;;;;;;17.26;62.55;101905.72;5059833;28;20025;-83
2022/11/08 09:46:38;;;;;;;12.75;6.70;;;;;;;17.41;61.05;101897.84;5067140;28;20025;-83
2022/11/08 09:49:05;;;;;;;14.10;6.32;;;;;;;17.38;61.13;101898.00;5043435;28;20033;-84
2022/11/08 09:51:30;;;;;;;15.93;5.93;;;;;;;17.39;61.42;101893.63;5057612;28;20113;-84
2022/11/08 09:53:59;;;;;;;10.25;6.05;;;;;;;17.43;60.81;101882.06;5048463;28;20082;-86
2022/11/08 09:56:30;;;;;;;21.48;8.95;;;;;;;17.62;61.82;101894.94;5035484;28;20031;-81
2022/11/08 09:59:01;;;;;;;12.00;5.30;;;;;;;17.67;58.88;101887.63;5041296;28;20060;-91
2022/11/08 10:01:31;;;;;;;14.93;6.53;;;;;;;17.81;58.63;101887.72;5029673;28;20056;-89
2022/11/08 10:03:59;;;;;;;14.73;6.88;;;;;;;17.79;58.87;101879.09;5021552;28;20033;-89
2022/11/08 10:06:51;;;;;;;12.38;5.85;;;;;;;17.96;57.97;101891.19;5052985;28;20052;-95
2022/11/08 10:09:31;;;;;;;11.52;6.05;;;;;;;17.99;58.09;101886.63;5054723;28;20365;-90
2022/11/08 10:12:12;;;;;;;8.38;4.25;;;;;;;18.01;58.02;101884.75;5060636;28;20486;-85
2022/11/08 10:15:08;;;;;;;17.90;7.13;;;;;;;18.12;57.59;101881.47;5069712;28;20107;-90
2022/11/08 10:17:58;;;;;;;11.45;6.38;;;;;;;18.00;56.87;101840.34;5050271;28;20044;-84
2022/11/08 10:20:26;;;;;;;12.82;6.30;;;;;;;18.26;56.66;101875.38;5055384;28;20033;-86
2022/11/08 10:23:11;;;;;;;14.60;7.18;;;;;;;18.33;56.13;101871.47;5055826;28;20036;-82
2022/11/08 10:26:16;;;;;;;12.30;7.47;;;;;;;18.42;55.29;101868.28;5051444;28;20029;-82
2022/11/08 10:28:56;;;;;;;10.30;5.63;;;;;;;18.53;55.82;101873.69;5046539;28;20044;-89
2022/11/08 10:31:21;;;;;;;11.18;6.10;;;;;;;18.69;55.17;101872.75;5037646;28;20036;-89
2022/11/08 10:33:52;;;;;;;9.30;4.63;;;;;;;18.60;53.82;101846.16;5035605;28;20548;-88
2022/11/08 10:36:21;;;;;;;7.95;4.45;;;;;;;18.67;52.42;101859.72;5035842;28;20024;-89
2022/11/08 10:38:56;;;;;;;10.45;5.15;;;;;;;18.31;52.49;101805.22;5037517;28;20028;-84
2022/11/08 10:41:46;;;;;;;8.13;4.03;;;;;;;18.65;51.42;101843.25;5059611;28;20610;-94
2022/11/08 10:44:19;;;;;;;9.63;4.97;;;;;;;18.75;51.42;101851.38;5054410;28;20482;-91
2022/11/08 10:46:54;;;;;;;12.43;4.65;;;;;;;18.80;52.70;101851.94;5045176;28;20043;-82
2022/11/08 10:49:22;;;;;;;8.10;4.30;;;;;;;18.84;53.35;101846.41;5070247;28;20529;-88
2022/11/08 10:51:50;;;;;;;12.15;4.85;;;;;;;18.80;51.90;101841.47;5053809;28;20024;-81
2022/11/08 10:54:40;;;;;;;11.07;4.63;;;;;;;18.98;52.09;101845.53;5033196;28;20044;-86
2022/11/08 10:57:06;;;;;;;5.35;3.42;;;;;;;18.79;51.63;101834.53;5054979;28;20091;-85
2022/11/08 10:59:31;;;;;;;12.07;4.68;;;;;;;18.85;52.04;101834.97;5053009;28;20040;-86
2022/11/08 11:01:57;;;;;;;10.55;5.10;;;;;;;18.84;51.99;101827.19;5050171;28;20056;-89
2022/11/08 11:04:30;;;;;;;9.18;4.25;;;;;;;18.76;51.12;101819.81;5021334;28;20056;-86
2022/11/08 11:07:03;;;;;;;9.43;4.95;;;;;;;18.75;52.24;101840.91;5036280;28;20024;-88
2022/11/08 11:09:28;;;;;;;9.48;4.07;;;;;;;18.68;51.82;101822.13;5035385;28;20086;-81
2022/11/08 11:11:58;;;;;;;10.07;4.45;;;;;;;18.68;52.68;101831.72;5040718;28;20036;-84
2022/11/08 11:14:24;;;;;;;8.30;3.60;;;;;;;18.63;51.60;101818.91;5048835;28;20021;-88
2022/11/08 11:16:57;;;;;;;10.82;6.55;;;;;;;18.42;52.01;101831.59;5068433;28;20480;-88
2022/11/08 11:19:25;;;;;;;10.80;4.57;;;;;;;18.32;51.91;101793.81;5051514;28;20044;-90
2022/11/08 11:22:04;;;;;;;9.95;4.97;;;;;;;18.59;52.52;101823.50;5036370;28;20123;-88
2022/11/08 11:24:30;;;;;;;8.73;4.03;;;;;;;18.43;52.46;101786.09;5048251;28;20053;-89
2022/11/08 11:26:55;;;;;;;9.77;4.85;;;;;;;18.66;51.95;101803.00;5052360;28;20056;-91
2022/11/08 11:29:34;;;;;;;11.15;4.45;;;;;;;18.80;50.35;101813.47;5061459;28;20053;-90
2022/11/08 11:32:31;;;;;;;7.88;4.03;;;;;;;18.77;50.65;101810.19;5023915;28;20112;-91
2022/11/08 11:35:01;;;;;;;9.60;4.50;;;;;;;18.48;49.37;101757.81;5037067;28;20417;-89
2022/11/08 11:37:45;;;;;;;6.35;3.88;;;;;;;18.76;49.88;101804.09;5044576;28;20021;-89
2022/11/08 11:40:17;;;;;;;6.40;3.83;;;;;;;18.76;50.98;101796.22;5048706;28;20501;-86
2022/11/08 11:43:12;;;;;;;10.25;5.80;;;;;;;18.86;50.42;101807.81;5070845;28;20033;-87
2022/11/08 11:45:49;;;;;;;13.93;5.43;;;;;;;18.86;49.50;101813.03;5064840;28;20511;-87
2022/11/08 11:48:35;;;;;;;12.50;4.20;;;;;;;18.54;50.91;101756.59;5068806;28;20036;-88
2022/11/08 11:51:01;;;;;;;8.10;3.38;;;;;;;18.77;49.62;101797.91;5015811;28;20029;-88
2022/11/08 11:53:28;;;;;;;7.20;3.63;;;;;;;18.76;49.25;101798.00;5033279;28;20029;-88
2022/11/08 11:56:12;;;;;;;15.35;6.20;;;;;;;18.77;50.40;101797.06;5049540;28;20025;-88
2022/11/08 11:58:42;;;;;;;8.45;4.95;;;;;;;18.87;49.60;101793.75;5051241;28;20029;-87
2022/11/08 12:01:32;;;;;;;17.38;8.48;;;;;;;18.83;49.89;101779.16;5049327;28;20032;-87
2022/11/08 12:04:27;;;;;;;15.70;5.03;;;;;;;18.96;49.73;101788.84;5050495;28;20078;-86
2022/11/08 12:06:59;;;;;;;8.35;3.67;;;;;;;18.98;49.53;101784.38;5049696;28;20029;-89
2022/11/08 12:09:34;;;;;;;10.20;4.10;;;;;;;18.70;50.77;101730.28;5032628;28;20124;-89
2022/11/08 12:12:30;;;;;;;8.52;3.72;;;;;;;18.90;49.79;101780.47;5048702;28;20055;-93
2022/11/08 12:15:02;;;;;;;8.50;4.32;;;;;;;18.75;49.95;101754.41;5053695;28;20067;-88
2022/11/08 12:17:34;;;;;;;10.60;4.40;;;;;;;18.90;50.55;101779.63;5014395;28;20040;-87
2022/11/08 12:20:27;;;;;;;12.55;5.53;;;;;;;18.88;50.14;101782.34;5033163;28;20098;-89
2022/11/08 12:23:14;;;;;;;9.13;4.60;;;;;;;19.01;49.42;101774.50;5049042;28;20087;-85
2022/11/08 12:25:39;;;;;;;6.90;4.05;;;;;;;18.96;50.07;101778.34;5016896;28;20017;-89
2022/11/08 12:28:05;;;;;;;10.15;4.53;;;;;;;18.95;49.22;101774.91;5051812;28;20062;-87
2022/11/08 12:30:43;;;;;;;7.75;3.75;;;;;;;18.98;48.95;101766.00;5053983;28;20406;-82
2022/11/08 12:33:38;;;;;;;8.90;4.50;;;;;;;18.85;49.04;101740.56;5016262;28;20494;-84
2022/11/08 12:36:19;;;;;;;6.93;4.05;;;;;;;19.07;49.68;101765.38;5033947;28;20052;-84
2022/11/08 12:38:53;;;;;;;6.75;3.72;;;;;;;19.07;49.93;101763.59;5049980;28;20025;-84
2022/11/08 12:41:33;;;;;;;9.93;4.30;;;;;;;18.94;48.04;101760.09;5030582;28;20093;-88
2022/11/08 12:44:04;;;;;;;8.48;4.45;;;;;;;19.05;48.51;101765.47;5008064;28;20021;-87
2022/11/08 12:46:34;;;;;;;9.68;4.75;;;;;;;18.81;49.11;101723.38;5004621;28;20419;-90
2022/11/08 12:49:05;;;;;;;10.88;4.80;;;;;;;19.01;48.64;101764.00;5011397;28;20480;-83
2022/11/08 12:51:56;;;;;;;14.43;5.25;;;;;;;19.03;48.77;101762.13;5011150;28;20026;-94
2022/11/08 12:54:37;;;;;;;11.23;5.60;;;;;;;18.89;48.65;101738.63;5006828;28;20115;-90
2022/11/08 12:57:15;;;;;;;8.65;4.55;;;;;;;19.00;49.33;101743.97;5007172;28;20033;-88
2022/11/08 12:59:43;;;;;;;7.85;4.53;;;;;;;19.11;50.43;101757.22;4991210;28;20029;-89
2022/11/08 13:02:31;;;;;;;9.82;4.38;;;;;;;18.92;49.90;101730.53;4993253;28;20054;-88
2022/11/08 13:05:05;;;;;;;9.80;4.20;;;;;;;19.09;49.33;101753.03;5007954;28;20038;-92
2022/11/08 13:07:35;;;;;;;14.68;5.18;;;;;;;19.16;49.52;101755.09;4991869;28;20022;-86
2022/11/08 13:10:26;;;;;;;9.48;4.28;;;;;;;19.25;48.70;101776.41;5007973;28;20595;-94
2022/11/08 13:13:16;;;;;;;12.23;5.25;;;;;;;19.22;49.09;101769.59;5008333;28;20087;-89
2022/11/08 13:16:06;;;;;;;13.80;5.78;;;;;;;19.28;49.89;101771.84;5008157;28;20535;-93
2022/11/08 13:18:32;;;;;;;7.60;3.67;;;;;;;19.16;49.33;101757.72;5010053;28;20056;-91
2022/11/08 13:20:58;;;;;;;11.63;4.75;;;;;;;19.22;48.65;101768.78;5002324;28;20567;-89
2022/11/08 13:23:31;;;;;;;7.95;3.65;;;;;;;19.18;50.52;101761.13;5002255;28;20116;-92
2022/11/08 13:26:11;;;;;;;14.77;4.63;;;;;;;19.22;50.62;101763.53;4996507;28;20133;-87
2022/11/08 13:28:44;;;;;;;9.20;3.92;;;;;;;19.35;48.51;101777.47;4994996;28;20564;-87
2022/11/08 13:31:21;;;;;;;9.85;4.90;;;;;;;19.37;48.35;101775.59;5000563;28;20091;-88
2022/11/08 13:34:08;;;;;;;18.00;6.10;;;;;;;19.44;48.81;101776.88;4995322;28;20160;-89
2022/11/08 13:37:03;;;;;;;9.95;5.22;;;;;;;19.40;49.11;101776.25;4996719;28;20037;-82
2022/11/08 13:39:59;;;;;;;7.53;3.50;;;;;;;19.21;49.80;101778.41;5015268;28;20045;-83
2022/11/08 13:42:36;;;;;;;9.57;4.68;;;;;;;19.18;49.70;101761.13;5023543;28;20058;-81
2022/11/08 13:45:13;;;;;;;8.23;3.80;;;;;;;19.28;48.67;101777.06;5012040;28;20030;-82
2022/11/08 13:47:41;;;;;;;10.23;4.50;;;;;;;19.23;48.88;101759.94;5013388;28;20029;-82
2022/11/08 13:53:18;;;;;;;9.00;3.88;;;;;;;19.09;49.67;101753.84;5013451;28;20030;-80
2022/11/08 13:55:53;;;;;;;7.22;3.42;;;;;;;19.25;49.29;101779.03;5012400;28;20476;-87
2022/11/08 13:58:41;;;;;;;7.35;4.28;;;;;;;19.04;49.25;101748.06;5013706;28;20037;-85
2022/11/08 14:01:07;;;;;;;6.75;3.75;;;;;;;19.12;50.19;101766.75;5011452;28;20109;-89
2022/11/08 14:03:33;;;;;;;6.90;4.07;;;;;;;19.18;50.32;101781.25;5002659;28;20124;-89
2022/11/08 14:06:04;;;;;;;8.23;4.63;;;;;;;19.26;49.99;101778.94;5021990;28;20137;-92
2022/11/08 14:08:49;;;;;;;12.63;4.60;;;;;;;19.37;49.75;101780.84;5010192;28;20113;-88
2022/11/08 14:11:33;;;;;;;13.38;4.60;;;;;;;19.30;49.66;101776.97;5011267;28;20034;-88
2022/11/08 14:14:21;;;;;;;8.48;4.13;;;;;;;19.18;49.88;101771.59;5012874;28;20049;-87
2022/11/08 14:16:50;;;;;;;9.63;4.80;;;;;;;19.24;50.12;101766.88;5013066;28;20030;-82
2022/11/08 14:19:21;;;;;;;9.55;4.38;;;;;;;19.18;49.37;101762.91;5008326;28;20042;-85
2022/11/08 14:21:56;;;;;;;9.35;4.78;;;;;;;19.09;50.42;101769.59;4992704;28;20072;-86
2022/11/08 14:24:24;;;;;;;8.88;5.00;;;;;;;19.04;49.79;101752.47;4996001;28;20034;-87
